createdAt,value
2023-04-03T00:03:55.282Z,100391.63
2023-04-03T00:08:54.447Z,100386.28
2023-04-03T00:13:54.962Z,100369.06
2023-04-03T00:18:53.370Z,100385.81
2023-04-03T00:23:51.542Z,100406.16
2023-04-03T00:28:50.928Z,100377.31
2023-04-03T00:33:49.297Z,100394.59
2023-04-03T00:38:48.142Z,100393.13
2023-04-03T00:43:49.619Z,100419.78
2023-04-03T00:48:51.968Z,100405.84
2023-04-03T00:53:53.403Z,100398.59
2023-04-03T00:59:00.920Z,100392.31
2023-04-03T01:04:01.474Z,100397.72
2023-04-03T01:09:02.474Z,100440.09
2023-04-03T01:14:04.656Z,100412.84
2023-04-03T01:19:04.581Z,100410.78
2023-04-03T01:24:05.827Z,100430.28
2023-04-03T01:29:04.685Z,100434.19
2023-04-03T01:34:05.683Z,100407.75
2023-04-03T01:39:04.908Z,100417.72
2023-04-03T01:44:05.122Z,100414.97
2023-04-03T01:49:03.789Z,100408.63
2023-04-03T01:54:02.396Z,100391.88
2023-04-03T01:59:01.200Z,100391.97
2023-04-03T02:04:01.034Z,100391.28
2023-04-03T02:08:59.781Z,100400.38
2023-04-03T02:13:58.617Z,100396.03
2023-04-03T02:18:59.589Z,100418.78
2023-04-03T02:23:57.994Z,100431.69
2023-04-03T02:28:56.259Z,100423.06
2023-04-03T02:33:57.469Z,100429.94
2023-04-03T02:38:57.894Z,100429.44
2023-04-03T02:43:59.216Z,100430.06
2023-04-03T02:48:59.507Z,100449.94
2023-04-03T02:53:57.704Z,100473.25
2023-04-03T02:59:03.324Z,100462.31
2023-04-03T03:04:04.413Z,100460.50
2023-04-03T03:09:07.900Z,100457.38
2023-04-03T03:14:06.531Z,100463.88
2023-04-03T03:19:05.864Z,100462.09
2023-04-03T03:24:05.010Z,100487.06
2023-04-03T03:29:05.522Z,100477.06
2023-04-03T03:34:08.837Z,100478.25
2023-04-03T03:39:08.452Z,100450.66
2023-04-03T03:44:07.436Z,100496.00
2023-04-03T03:49:09.941Z,100481.44
2023-04-03T03:54:08.936Z,100495.38
2023-04-03T03:59:09.210Z,100510.97
2023-04-03T04:04:13.468Z,100498.34
2023-04-03T04:09:13.086Z,100470.91
2023-04-03T04:14:14.672Z,100474.25
2023-04-03T04:19:14.873Z,100486.56
2023-04-03T04:24:16.890Z,100432.53
2023-04-03T04:29:18.528Z,100460.50
2023-04-03T04:34:21.509Z,100460.34
2023-04-03T04:39:20.794Z,100457.63
2023-04-03T04:44:20.262Z,100484.75
2023-04-03T04:49:19.273Z,100481.09
2023-04-03T04:54:20.997Z,100499.53
2023-04-03T04:59:22.255Z,100492.94
2023-04-03T05:04:26.233Z,100484.34
2023-04-03T05:09:31.183Z,100506.69
2023-04-03T05:14:30.506Z,100494.00
2023-04-03T05:19:34.496Z,100496.97
2023-04-03T05:24:34.873Z,100509.94
2023-04-03T05:29:34.633Z,100527.91
2023-04-03T05:34:34.731Z,100514.03
2023-04-03T05:39:36.014Z,100506.72
2023-04-03T05:44:36.630Z,100513.72
2023-04-03T05:49:34.962Z,100548.19
2023-04-03T05:54:33.751Z,100536.94
2023-04-03T05:59:47.901Z,100544.63
2023-04-03T06:04:50.443Z,100578.38
2023-04-03T06:09:50.800Z,100568.97
2023-04-03T06:14:49.679Z,100570.22
2023-04-03T06:19:53.593Z,100578.09
2023-04-03T06:24:55.146Z,100599.75
2023-04-03T06:29:55.984Z,100589.38
2023-04-03T06:34:54.706Z,100590.72
2023-04-03T06:39:53.322Z,100603.13
2023-04-03T06:44:53.181Z,100622.03
2023-04-03T06:49:51.489Z,100597.50
2023-04-03T06:54:51.746Z,100639.25
2023-04-03T06:59:51.398Z,100605.84
2023-04-03T07:04:49.609Z,100633.31
2023-04-03T07:09:49.087Z,100606.94
2023-04-03T07:14:47.197Z,100614.75
2023-04-03T07:19:46.012Z,100585.41
2023-04-03T07:25:08.728Z,100643.09
2023-04-03T07:30:08.299Z,100632.38
2023-04-03T07:35:06.635Z,100639.69
2023-04-03T07:40:11.428Z,100599.16
2023-04-03T07:45:10.411Z,100656.97
2023-04-03T07:50:10.195Z,100622.00
2023-04-03T07:55:09.537Z,100639.13
2023-04-03T08:00:10.124Z,100649.09
2023-04-03T08:05:10.326Z,100642.50
2023-04-03T08:10:12.150Z,100642.50
2023-04-03T08:15:11.025Z,100668.16
2023-04-03T08:20:09.522Z,100638.88
2023-04-03T08:25:08.215Z,100668.72
2023-04-03T08:30:07.718Z,100638.19
2023-04-03T08:35:06.526Z,100651.09
2023-04-03T08:40:12.493Z,100636.56
2023-04-03T08:45:17.261Z,100603.41
2023-04-03T08:50:18.918Z,100624.28
2023-04-03T08:55:30.104Z,100616.66
2023-04-03T09:00:36.287Z,100599.94
2023-04-03T09:05:40.498Z,100594.13
2023-04-03T09:10:40.146Z,100577.38
2023-04-03T09:15:39.460Z,100613.69
2023-04-03T09:20:57.655Z,100600.44
2023-04-03T09:26:09.354Z,100568.88
2023-04-03T09:31:23.264Z,100588.81
2023-04-03T09:42:03.420Z,100584.69
2023-04-03T09:47:30.805Z,100583.16
2023-04-03T09:52:30.082Z,100549.09
2023-04-03T09:57:34.136Z,100604.53
2023-04-03T10:02:40.623Z,100576.94
2023-04-03T10:07:40.213Z,100547.78
2023-04-03T10:12:39.484Z,100580.13
2023-04-03T10:18:04.465Z,100583.63
2023-04-03T10:23:26.379Z,100591.94
2023-04-03T10:28:57.134Z,100591.78
2023-04-03T10:34:12.568Z,100556.47
2023-04-03T10:39:32.003Z,100551.16
2023-04-03T10:45:13.625Z,100526.50
2023-04-03T10:50:54.655Z,100534.88
2023-04-03T10:56:24.495Z,100570.59
2023-04-03T11:01:27.269Z,100557.41
2023-04-03T11:06:28.350Z,100533.31
2023-04-03T11:11:32.083Z,100559.59
2023-04-03T11:16:43.541Z,100544.13
2023-04-03T11:21:54.277Z,100530.94
2023-04-03T11:26:53.457Z,100518.13
2023-04-03T11:32:30.959Z,100510.19
2023-04-03T11:37:42.494Z,100540.22
2023-04-03T11:42:46.901Z,100482.56
2023-04-03T11:47:57.566Z,100529.25
2023-04-03T11:53:04.924Z,100453.41
2023-04-03T11:58:16.325Z,100472.69
2023-04-03T12:03:34.259Z,100498.47
2023-04-03T12:08:47.383Z,100492.94
2023-04-03T12:14:05.996Z,100487.34
2023-04-03T12:19:24.211Z,100482.41
2023-04-03T12:24:43.535Z,100434.59
2023-04-03T12:29:56.065Z,100429.06
2023-04-03T12:35:05.249Z,100473.69
2023-04-03T12:40:14.605Z,100465.38
2023-04-03T12:45:16.728Z,100480.13
2023-04-03T12:50:44.669Z,100464.00
2023-04-03T12:55:56.326Z,100451.34
2023-04-03T13:01:07.982Z,100461.19
2023-04-03T13:06:13.554Z,100462.28
2023-04-03T13:11:20.928Z,100440.69
2023-04-03T13:16:25.320Z,100461.19
2023-04-03T13:21:34.718Z,100463.25
2023-04-03T13:26:55.385Z,100425.25
2023-04-03T13:31:58.089Z,100469.03
2023-04-03T13:36:58.409Z,100468.28
2023-04-03T13:42:03.925Z,100433.34
2023-04-03T13:47:17.448Z,100414.06
2023-04-03T13:52:26.072Z,100461.31
2023-04-03T13:57:25.085Z,100431.03
2023-04-03T14:02:34.876Z,100415.47
2023-04-03T14:07:35.295Z,100404.59
2023-04-03T14:12:37.426Z,100465.38
2023-04-03T14:17:36.208Z,100436.75
2023-04-03T14:22:35.940Z,100420.56
2023-04-03T14:27:46.028Z,100412.50
2023-04-03T14:32:45.017Z,100431.91
2023-04-03T14:37:43.457Z,100442.44
2023-04-03T14:42:44.571Z,100403.59
2023-04-03T14:47:52.959Z,100437.78
2023-04-03T14:52:55.738Z,100442.63
2023-04-03T14:57:54.387Z,100431.50
2023-04-03T15:02:52.846Z,100446.66
2023-04-03T15:07:58.267Z,100405.00
2023-04-03T15:12:56.839Z,100409.78
2023-04-03T15:17:59.109Z,100396.22
2023-04-03T15:22:59.143Z,100403.28
2023-04-03T15:27:59.632Z,100439.94
2023-04-03T15:32:58.974Z,100404.16
2023-04-03T15:37:59.653Z,100424.75
2023-04-03T15:43:00.585Z,100387.31
2023-04-03T15:47:59.185Z,100422.38
2023-04-03T15:52:59.045Z,100409.63
2023-04-03T15:57:58.130Z,100396.91
2023-04-03T16:02:59.731Z,100399.50
2023-04-03T16:07:59.018Z,100430.84
2023-04-03T16:12:57.057Z,100414.59
2023-04-03T16:17:55.287Z,100418.47
2023-04-03T16:22:54.075Z,100425.25
2023-04-03T16:27:52.775Z,100450.88
2023-04-03T16:32:50.642Z,100445.22
2023-04-03T16:37:50.370Z,100434.69
2023-04-03T16:42:49.923Z,100452.34
2023-04-03T16:47:49.984Z,100435.09
2023-04-03T16:52:48.766Z,100477.44
2023-04-03T16:57:47.265Z,100452.81
2023-04-03T17:02:46.032Z,100459.72
2023-04-03T17:07:45.344Z,100439.00
2023-04-03T17:12:45.296Z,100466.19
2023-04-03T17:17:46.107Z,100448.25
2023-04-03T17:22:45.560Z,100478.97
2023-04-03T17:27:44.163Z,100480.91
2023-04-03T17:32:44.710Z,100442.91
2023-04-03T17:37:44.028Z,100480.78
2023-04-03T17:42:42.548Z,100452.41
2023-04-03T17:47:45.927Z,100492.72
2023-04-03T17:52:47.948Z,100468.69
2023-04-03T17:57:47.094Z,100471.03
2023-04-03T18:02:52.307Z,100458.69
2023-04-03T18:07:53.838Z,100444.00
2023-04-03T18:12:53.453Z,100458.78
2023-04-03T18:17:57.060Z,100479.63
2023-04-03T18:22:55.034Z,100482.31
2023-04-03T18:27:53.580Z,100494.44
2023-04-03T18:32:52.449Z,100462.66
2023-04-03T18:37:54.221Z,100473.31
2023-04-03T18:42:52.125Z,100436.59
2023-04-03T18:47:50.532Z,100429.56
2023-04-03T18:53:04.728Z,100454.06
2023-04-03T18:58:14.609Z,100455.53
2023-04-03T19:03:16.496Z,100448.22
2023-04-03T19:08:19.385Z,100419.97
2023-04-03T19:13:31.049Z,100438.53
2023-04-03T19:18:31.558Z,100410.63
2023-04-03T19:23:32.495Z,100428.72
2023-04-03T19:28:30.929Z,100364.91
2023-04-03T19:33:59.663Z,100379.97
2023-04-03T19:39:04.136Z,100420.56
2023-04-03T19:44:02.410Z,100344.84
2023-04-03T19:49:00.962Z,100355.78
2023-04-03T19:54:03.010Z,100323.50
2023-04-03T19:59:04.113Z,100338.69
2023-04-03T20:04:03.547Z,100339.94
2023-04-03T20:09:03.929Z,100355.59
2023-04-03T20:14:07.373Z,100332.75
2023-04-03T20:19:07.360Z,100297.00
2023-04-03T20:24:09.300Z,100331.59
2023-04-03T20:29:09.977Z,100287.28
2023-04-03T20:34:11.125Z,100279.91
2023-04-03T20:39:08.876Z,100296.38
2023-04-03T20:44:07.634Z,100302.97
2023-04-03T20:49:06.765Z,100341.63
2023-04-03T20:54:07.364Z,100321.09
2023-04-03T20:59:05.923Z,100326.28
2023-04-03T21:04:10.815Z,100334.56
2023-04-03T21:09:47.354Z,100383.13
2023-04-03T21:15:23.512Z,100387.53
2023-04-03T21:20:22.067Z,100321.38
2023-04-03T21:25:24.076Z,100333.59
2023-04-03T21:30:28.051Z,100299.22
2023-04-03T21:35:27.989Z,100314.91
2023-04-03T21:40:27.032Z,100345.91
2023-04-03T21:45:28.986Z,100325.06
2023-04-03T21:50:28.821Z,100334.56
2023-04-03T21:55:28.893Z,100348.16
2023-04-03T22:00:32.903Z,100315.28
2023-04-03T22:05:33.624Z,100349.75
2023-04-03T22:10:33.903Z,100313.88
2023-04-03T22:15:33.857Z,100299.47
2023-04-03T22:20:33.803Z,100338.78
2023-04-03T22:25:34.230Z,100300.28
2023-04-03T22:30:32.259Z,100320.59
2023-04-03T22:35:31.815Z,100286.19
2023-04-03T22:40:29.809Z,100305.28
2023-04-03T22:45:31.622Z,100296.16
2023-04-03T22:50:31.080Z,100301.59
2023-04-03T22:55:34.864Z,100259.84
2023-04-03T23:00:36.598Z,100324.72
2023-04-03T23:05:38.175Z,100243.16
2023-04-03T23:10:37.350Z,100225.22
2023-04-03T23:15:35.900Z,100280.91
2023-04-03T23:20:34.328Z,100278.66
2023-04-03T23:25:33.845Z,100274.81
2023-04-03T23:30:32.742Z,100309.59
2023-04-03T23:35:30.694Z,100285.78
2023-04-03T23:40:29.430Z,100272.50
2023-04-03T23:45:27.203Z,100259.34
2023-04-03T23:50:26.577Z,100263.13
2023-04-03T23:55:26.546Z,100273.72
